Time;durP1;ratioP1;P1;durP2;ratioP2;P2;SDS_P1;SDS_P2;PMS_P1;PMS_P2;Temp;Humidity;BMP_temperature;BMP_pressure;BME280_temperature;BME280_humidity;BME280_pressure;Samples;Min_cycle;Max_cycle;Signal;HPM_P1;HPM_P2
2021/07/26 00:01:53;;;;;;;;;;;;;;;21.26;60.76;100763.20;1668856;85;20988;-73
2021/07/26 00:04:19;;;;;;;13.30;11.75;;;;;;;21.19;61.07;100767.42;1669612;85;20164;-74
2021/07/26 00:06:48;;;;;;;14.53;12.80;;;;;;;21.05;61.42;100773.73;1657297;85;21015;-74
2021/07/26 00:12:04;;;;;;;15.35;13.83;;;;;;;20.93;61.77;100768.41;1772797;77;22867;-74
2021/07/26 00:14:32;;;;;;;12.78;11.25;;;;;;;20.82;62.08;100772.02;1715410;82;21001;-72
2021/07/26 00:16:58;;;;;;;12.37;11.28;;;;;;;20.84;62.21;100776.66;1707471;82;21081;-72
2021/07/26 00:19:26;;;;;;;13.20;11.88;;;;;;;20.91;62.22;100775.15;1711594;82;21087;-73
2021/07/26 00:21:53;;;;;;;13.30;12.10;;;;;;;20.94;62.05;100775.98;1725621;82;21031;-74
2021/07/26 00:24:19;;;;;;;;;;;;;;;20.93;62.13;100783.31;1714134;81;22648;-73
2021/07/26 00:26:47;;;;;;;14.28;12.82;;;;;;;20.91;62.06;100780.56;1713629;81;20471;-73
2021/07/26 00:29:15;;;;;;;14.40;13.05;;;;;;;20.85;62.05;100774.76;1712242;81;21175;-73
2021/07/26 00:31:41;;;;;;;;;;;;;;;20.86;61.85;100777.22;1706324;81;21048;-74
2021/07/26 00:34:21;;;;;;;15.60;14.25;;;;;;;20.90;61.59;100778.37;1701850;81;20130;-73
2021/07/26 00:36:52;;;;;;;15.55;13.93;;;;;;;20.86;61.56;100772.34;1687564;84;21105;-74
2021/07/26 00:39:21;;;;;;;13.50;12.23;;;;;;;20.91;61.47;100773.80;1694698;84;21140;-73
2021/07/26 00:41:51;;;;;;;13.38;12.25;;;;;;;20.97;61.32;100768.73;1686205;84;21073;-74
2021/07/26 00:44:20;;;;;;;14.20;13.00;;;;;;;20.98;61.28;100777.14;1689475;83;21041;-73
2021/07/26 00:46:51;;;;;;;14.70;12.88;;;;;;;20.94;61.37;100770.03;1713770;82;21029;-73
2021/07/26 00:49:21;;;;;;;15.75;14.20;;;;;;;20.92;61.44;100776.23;1706905;82;21159;-74
2021/07/26 00:51:52;;;;;;;14.98;13.78;;;;;;;20.90;61.58;100778.91;1712064;82;21117;-74
2021/07/26 00:54:22;;;;;;;15.60;14.07;;;;;;;20.86;61.59;100777.22;1712670;83;21736;-74
2021/07/26 00:56:52;;;;;;;16.32;13.10;;;;;;;20.83;61.76;100780.95;1710958;83;21006;-74
2021/07/26 00:59:19;;;;;;;14.35;13.05;;;;;;;20.83;61.81;100777.70;1702885;82;21093;-73
2021/07/26 01:01:45;;;;;;;15.15;12.60;;;;;;;20.88;61.76;100765.61;1702855;82;21044;-74
2021/07/26 01:04:13;;;;;;;16.25;14.47;;;;;;;20.90;61.84;100769.42;1705780;82;21036;-74
2021/07/26 01:06:41;;;;;;;14.75;13.50;;;;;;;20.88;62.04;100770.20;1707339;82;21056;-73
2021/07/26 01:09:08;;;;;;;16.82;13.75;;;;;;;20.84;62.25;100774.48;1706636;82;21633;-75
2021/07/26 01:11:35;;;;;;;16.02;14.28;;;;;;;20.79;62.35;100767.08;1700511;82;21181;-73
2021/07/26 01:14:02;;;;;;;14.25;12.93;;;;;;;20.70;62.49;100763.97;1700267;82;21816;-73
2021/07/26 01:16:29;;;;;;;15.70;14.20;;;;;;;20.64;62.90;100766.83;1698285;82;21133;-73
2021/07/26 01:18:56;;;;;;;13.95;12.68;;;;;;;20.57;63.37;100766.42;1699244;82;21077;-73
2021/07/26 01:21:23;;;;;;;16.30;14.10;;;;;;;20.51;63.57;100760.64;1698016;82;21144;-73
2021/07/26 01:23:52;;;;;;;14.98;13.62;;;;;;;20.46;63.82;100755.13;1680698;83;21148;-72
2021/07/26 01:26:22;;;;;;;18.92;14.25;;;;;;;20.45;63.87;100754.83;1675800;83;21038;-73
2021/07/26 01:28:52;;;;;;;13.83;12.70;;;;;;;20.45;63.98;100752.66;1650815;85;21009;-74
2021/07/26 01:31:20;;;;;;;15.15;13.38;;;;;;;20.49;63.95;100755.16;1637862;85;20983;-74
2021/07/26 01:33:48;;;;;;;14.65;13.20;;;;;;;20.55;63.73;100747.41;1638855;86;21102;-73
2021/07/26 01:36:16;;;;;;;16.15;14.63;;;;;;;20.58;63.70;100750.99;1695740;83;21042;-73
2021/07/26 01:38:45;;;;;;;18.37;13.25;;;;;;;20.55;63.82;100755.02;1684721;84;21097;-74
2021/07/26 01:41:18;;;;;;;15.08;13.72;;;;;;;20.51;63.96;100751.67;1700442;83;20998;-72
2021/07/26 01:44:42;;;;;;;15.58;14.07;;;;;;;20.46;64.08;100759.73;1698273;83;21021;-74
2021/07/26 01:46:45;;;;;;;22.00;14.35;;;;;;;20.39;64.32;100754.45;1641974;86;21069;-75
2021/07/26 01:49:42;;;;;;;15.23;13.43;;;;;;;20.38;64.42;100752.29;1645838;86;21129;-74
2021/07/26 01:52:10;;;;;;;14.55;13.25;;;;;;;20.45;64.33;100754.02;1643770;86;21081;-73
2021/07/26 01:54:36;;;;;;;15.85;14.45;;;;;;;20.45;64.26;100754.83;1645478;86;21105;-74
2021/07/26 01:57:03;;;;;;;;;;;;;;;20.40;64.28;100754.22;1675546;84;21559;-74
2021/07/26 01:59:31;;;;;;;15.83;14.53;;;;;;;20.36;64.36;100749.01;1667895;84;20115;-74
2021/07/26 02:01:57;;;;;;;16.80;14.43;;;;;;;20.29;64.48;100750.22;1718872;82;21701;-74
2021/07/26 02:04:23;;;;;;;14.58;13.28;;;;;;;20.30;64.44;100750.50;1721190;82;21001;-74
2021/07/26 02:06:50;;;;;;;14.18;12.98;;;;;;;20.36;64.28;100754.93;1721008;82;21019;-73
2021/07/26 02:09:16;;;;;;;15.98;14.55;;;;;;;20.37;64.26;100758.75;1717121;82;20990;-73
2021/07/26 02:11:43;;;;;;;16.50;14.75;;;;;;;20.33;64.36;100753.55;1716623;83;21051;-74
2021/07/26 02:14:10;;;;;;;16.97;15.38;;;;;;;20.29;64.58;100760.51;1698693;84;20984;-73
2021/07/26 02:16:38;;;;;;;15.95;14.45;;;;;;;20.24;64.77;100754.99;1690581;84;20996;-74
2021/07/26 02:19:06;;;;;;;15.32;13.50;;;;;;;20.22;64.83;100759.83;1692726;84;21024;-74
2021/07/26 02:21:32;;;;;;;15.30;13.93;;;;;;;20.29;65.08;100756.98;1693780;84;21098;-73
2021/07/26 02:24:00;;;;;;;16.30;14.83;;;;;;;20.31;64.99;100753.51;1707582;82;21566;-73
2021/07/26 02:26:28;;;;;;;17.70;14.73;;;;;;;20.28;65.06;100755.33;1707727;83;21646;-72
2021/07/26 02:28:54;;;;;;;15.98;14.30;;;;;;;20.25;64.97;100758.00;1702401;83;21019;-73
2021/07/26 02:31:20;;;;;;;;;;;;;;;20.20;65.07;100756.00;1704873;83;21044;-73
2021/07/26 02:33:49;;;;;;;15.97;14.47;;;;;;;20.22;64.78;100759.83;1698455;83;20450;-73
2021/07/26 02:36:15;;;;;;;16.02;14.50;;;;;;;20.22;64.61;100766.05;1704452;83;21554;-74
2021/07/26 02:38:42;;;;;;;16.82;15.00;;;;;;;20.25;64.46;100766.13;1701312;83;21060;-73
2021/07/26 02:41:11;;;;;;;16.70;15.15;;;;;;;20.25;64.22;100764.77;1709768;83;21101;-73
2021/07/26 02:43:38;;;;;;;17.73;15.93;;;;;;;20.25;64.06;100768.83;1702038;83;21041;-72
2021/07/26 02:46:06;;;;;;;20.82;14.43;;;;;;;20.26;63.92;100768.29;1710357;82;21048;-73
2021/07/26 02:48:33;;;;;;;20.77;13.98;;;;;;;20.27;63.87;100769.92;1693837;82;21096;-72
2021/07/26 02:50:59;;;;;;;15.95;14.63;;;;;;;20.31;63.73;100775.16;1703512;82;21022;-73
2021/07/26 02:53:25;;;;;;;17.57;13.30;;;;;;;20.37;63.60;100772.29;1705524;82;21069;-73
2021/07/26 02:55:52;;;;;;;25.77;16.27;;;;;;;20.42;63.51;100775.64;1706839;84;21034;-72
2021/07/26 02:58:20;;;;;;;16.62;15.05;;;;;;;20.42;63.46;100776.45;1710246;83;21499;-74
2021/07/26 03:00:47;;;;;;;17.27;15.40;;;;;;;20.42;63.45;100775.64;1709671;83;21014;-73
2021/07/26 03:03:13;;;;;;;17.80;16.00;;;;;;;20.45;63.35;100783.80;1705182;83;21562;-73
2021/07/26 03:05:40;;;;;;;16.95;15.35;;;;;;;20.50;63.19;100780.65;1701467;83;21558;-73
2021/07/26 03:08:06;;;;;;;;;;;;;;;20.70;62.76;100778.88;1682045;84;21025;-73
2021/07/26 03:10:33;;;;;;;18.25;16.55;;;;;;;20.96;61.88;100784.69;1670881;84;20456;-73
2021/07/26 03:13:00;;;;;;;17.37;15.80;;;;;;;21.15;61.51;100783.39;1701914;84;21501;-74
2021/07/26 03:15:27;;;;;;;18.92;17.12;;;;;;;21.37;60.69;100779.89;1701951;84;21576;-74
2021/07/26 03:17:53;;;;;;;;;;;;;;;21.60;59.91;100775.35;1704370;84;21081;-73
2021/07/26 03:20:20;;;;;;;17.85;16.35;;;;;;;21.85;59.38;100775.69;1701759;84;20391;-73
2021/07/26 03:23:05;;;;;;;19.90;17.80;;;;;;;22.02;58.59;100772.06;1698440;84;21133;-73
2021/07/26 03:25:33;;;;;;;18.52;16.93;;;;;;;22.15;57.93;100777.94;1698372;84;21113;-73
2021/07/26 03:28:02;;;;;;;21.50;17.90;;;;;;;22.18;57.94;100776.59;1702517;84;21038;-74
2021/07/26 03:30:28;;;;;;;18.10;16.37;;;;;;;22.28;57.62;100780.83;1692856;84;21100;-74
2021/07/26 03:32:54;;;;;;;19.40;17.42;;;;;;;22.43;57.46;100780.13;1692931;84;21039;-75
2021/07/26 03:35:22;;;;;;;18.90;16.95;;;;;;;22.73;56.72;100779.63;1692842;83;21012;-74
2021/07/26 03:37:52;;;;;;;19.07;17.17;;;;;;;23.02;55.85;100782.02;1694211;83;21154;-73
2021/07/26 03:40:20;;;;;;;19.30;16.50;;;;;;;23.21;55.24;100789.80;1703527;83;21001;-74
2021/07/26 03:42:48;;;;;;;19.60;16.30;;;;;;;23.25;54.83;100790.91;1686752;83;21094;-73
2021/07/26 03:45:19;;;;;;;18.25;16.52;;;;;;;23.36;54.67;100791.25;1703899;83;21038;-74
2021/07/26 03:47:45;;;;;;;19.50;17.50;;;;;;;23.56;54.53;100796.52;1698033;83;21635;-73
2021/07/26 03:50:17;;;;;;;17.87;15.85;;;;;;;23.86;53.91;100799.41;1703148;83;21464;-72
2021/07/26 03:52:56;;;;;;;18.90;15.32;;;;;;;24.13;53.40;100798.44;1713418;83;21022;-73
2021/07/26 03:55:27;;;;;;;16.55;15.05;;;;;;;24.34;52.54;100794.41;1712685;82;20991;-74
2021/07/26 03:57:54;;;;;;;16.60;15.00;;;;;;;24.59;52.04;100797.19;1718710;82;21105;-74
2021/07/26 04:00:24;;;;;;;16.12;14.55;;;;;;;24.80;51.41;100801.30;1726999;82;21022;-73
2021/07/26 04:08:06;;;;;;;16.93;15.08;;;;;;;25.08;49.78;100807.30;1725095;82;21523;-72
2021/07/26 04:10:34;;;;;;;16.05;14.50;;;;;;;25.15;50.15;100800.47;1723277;82;21637;-73
2021/07/26 04:13:02;;;;;;;16.48;15.03;;;;;;;25.22;49.88;100802.89;1714431;83;21034;-74
2021/07/26 04:15:28;;;;;;;16.48;14.15;;;;;;;25.36;50.04;100803.20;1721192;82;21161;-74
2021/07/26 04:17:57;;;;;;;17.12;15.32;;;;;;;25.52;49.33;100805.33;1704744;83;21650;-75
2021/07/26 04:20:23;;;;;;;17.70;15.35;;;;;;;25.71;48.43;100799.55;1702403;83;20995;-73
2021/07/26 04:22:50;;;;;;;20.82;15.32;;;;;;;25.92;48.62;100798.11;1721109;83;20970;-75
2021/07/26 04:25:17;;;;;;;28.32;16.80;;;;;;;26.14;48.09;100795.81;1718909;82;21031;-77
2021/07/26 04:27:43;;;;;;;17.57;14.80;;;;;;;26.47;47.32;100785.80;1684438;84;21075;-76
2021/07/26 04:30:11;;;;;;;16.30;14.53;;;;;;;26.59;46.88;100791.71;1665244;84;21650;-76
2021/07/26 04:32:49;;;;;;;17.62;13.93;;;;;;;26.67;46.15;100791.12;1668523;84;21048;-76
2021/07/26 04:35:17;;;;;;;14.65;13.40;;;;;;;26.75;46.06;100789.16;1699336;84;21033;-75
2021/07/26 04:37:46;;;;;;;22.42;13.55;;;;;;;26.93;44.72;100788.99;1706336;84;21023;-78
2021/07/26 04:40:13;;;;;;;15.48;13.60;;;;;;;27.10;44.77;100785.83;1700626;84;20998;-79
2021/07/26 04:42:42;;;;;;;13.70;12.28;;;;;;;27.33;44.96;100781.55;1704894;82;21007;-82
2021/07/26 04:45:10;;;;;;;15.25;13.40;;;;;;;27.72;43.69;100787.38;1653766;84;21575;-77
2021/07/26 04:47:37;;;;;;;13.15;11.88;;;;;;;28.09;42.43;100782.30;1659383;85;21134;-76
2021/07/26 04:50:06;;;;;;;14.43;11.88;;;;;;;28.36;41.70;100782.98;1670957;84;21024;-76
2021/07/26 04:52:32;;;;;;;16.42;13.78;;;;;;;28.72;41.09;100786.56;1672827;85;21454;-77
2021/07/26 04:55:02;;;;;;;14.98;13.45;;;;;;;29.02;40.29;100786.59;1662693;85;21105;-79
2021/07/26 04:57:28;;;;;;;13.05;11.75;;;;;;;29.18;40.32;100788.55;1676005;85;21163;-65
2021/07/26 04:59:55;;;;;;;12.80;11.57;;;;;;;29.40;39.90;100786.47;1661674;85;21738;-63
2021/07/26 05:02:21;;;;;;;13.38;12.13;;;;;;;29.50;39.24;100785.48;1654728;85;20996;-64
2021/07/26 05:04:47;;;;;;;12.88;11.55;;;;;;;29.49;39.25;100791.51;1702312;82;21084;-76
2021/07/26 05:07:13;;;;;;;13.25;11.97;;;;;;;29.46;39.11;100781.16;1706883;82;21450;-76
2021/07/26 05:09:40;;;;;;;12.63;11.18;;;;;;;29.45;39.31;100775.39;1698787;82;21516;-77
2021/07/26 05:12:14;;;;;;;14.55;11.33;;;;;;;29.38;39.36;100781.04;1660738;84;21098;-76
2021/07/26 05:14:40;;;;;;;12.98;11.45;;;;;;;29.16;39.68;100783.09;1671229;84;21034;-77
2021/07/26 05:17:06;;;;;;;10.75;9.85;;;;;;;29.03;39.67;100784.69;1704800;83;21146;-78
2021/07/26 05:19:34;;;;;;;10.05;9.15;;;;;;;29.02;40.00;100776.19;1698879;82;21054;-76
2021/07/26 05:22:01;;;;;;;10.82;9.73;;;;;;;29.14;39.71;100786.16;1699602;82;21535;-77
2021/07/26 05:24:27;;;;;;;13.53;9.48;;;;;;;29.34;38.73;100775.91;1710748;83;21118;-76
2021/07/26 05:27:02;;;;;;;11.88;9.88;;;;;;;29.24;39.13;100779.09;1700330;83;21576;-78
2021/07/26 05:29:31;;;;;;;11.55;10.55;;;;;;;29.17;39.53;100775.93;1699385;83;21051;-79
2021/07/26 05:32:00;;;;;;;14.58;11.35;;;;;;;29.09;39.74;100772.49;1695195;84;21070;-77
2021/07/26 05:34:29;;;;;;;16.57;10.53;;;;;;;29.03;39.35;100769.03;1703216;83;21117;-78
2021/07/26 05:36:56;;;;;;;13.53;10.25;;;;;;;29.03;39.88;100766.85;1711106;83;21062;-79
2021/07/26 05:39:23;;;;;;;10.50;9.45;;;;;;;29.10;39.98;100760.38;1697384;83;21062;-78
2021/07/26 05:41:53;;;;;;;12.30;10.88;;;;;;;29.33;39.30;100763.28;1705805;83;20999;-79
2021/07/26 05:44:20;;;;;;;9.70;8.73;;;;;;;29.43;38.91;100761.72;1710560;83;21534;-76
2021/07/26 05:46:46;;;;;;;15.50;9.95;;;;;;;29.68;38.70;100763.93;1707956;82;21485;-76
2021/07/26 05:49:12;;;;;;;27.30;14.35;;;;;;;29.93;38.19;100760.98;1705637;82;21037;-76
2021/07/26 05:51:39;;;;;;;67.67;21.42;;;;;;;30.03;37.36;100767.07;1708827;82;21135;-74
2021/07/26 05:54:05;;;;;;;22.17;13.03;;;;;;;30.04;37.40;100778.87;1698958;82;21094;-75
2021/07/26 05:56:40;;;;;;;22.00;12.07;;;;;;;30.16;37.12;100759.91;1698403;83;21065;-75
2021/07/26 05:59:01;;;;;;;25.30;14.38;;;;;;;30.17;37.17;100763.47;1711472;82;21039;-75
2021/07/26 06:01:46;;;;;;;15.68;10.53;;;;;;;29.99;37.61;100765.23;1709803;82;21016;-75
2021/07/26 06:04:01;;;;;;;15.25;11.40;;;;;;;29.99;37.34;100770.73;1699584;82;20979;-74
2021/07/26 06:06:26;;;;;;;14.68;9.30;;;;;;;29.98;37.37;100769.13;1703996;82;21101;-75
2021/07/26 06:08:54;;;;;;;12.78;9.28;;;;;;;30.02;38.37;100762.69;1708854;82;21056;-75
2021/07/26 06:11:20;;;;;;;9.30;8.43;;;;;;;30.30;37.33;100763.98;1698296;82;21062;-75
2021/07/26 06:13:46;;;;;;;10.63;8.00;;;;;;;30.49;37.11;100765.78;1711071;82;21035;-77
2021/07/26 06:16:13;;;;;;;9.45;8.38;;;;;;;30.56;36.66;100759.28;1725376;82;21118;-76
2021/07/26 06:18:40;;;;;;;9.20;8.00;;;;;;;30.54;36.42;100756.03;1713779;82;20991;-77
2021/07/26 06:21:07;;;;;;;11.30;8.88;;;;;;;30.55;36.19;100761.20;1717229;82;21097;-78
2021/07/26 06:23:35;;;;;;;14.45;8.95;;;;;;;30.59;36.75;100772.39;1709042;82;21014;-76
2021/07/26 06:26:05;;;;;;;13.15;9.23;;;;;;;30.81;36.31;100759.99;1716019;82;21166;-77
2021/07/26 06:28:30;;;;;;;9.00;8.15;;;;;;;31.04;36.09;100763.57;1700277;82;21932;-78
2021/07/26 06:30:56;;;;;;;10.13;6.95;;;;;;;31.20;34.97;100763.15;1714558;82;21539;-77
2021/07/26 06:33:22;;;;;;;7.30;6.35;;;;;;;31.12;35.26;100761.98;1715695;82;21058;-77
2021/07/26 06:35:48;;;;;;;8.95;7.22;;;;;;;30.96;34.70;100762.95;1704181;83;21582;-78
2021/07/26 06:38:14;;;;;;;8.63;7.92;;;;;;;30.74;35.84;100775.33;1704027;82;20991;-80
2021/07/26 06:40:44;;;;;;;8.30;7.62;;;;;;;30.79;35.82;100770.50;1700319;82;21523;-82
2021/07/26 06:43:11;;;;;;;8.60;7.72;;;;;;;30.80;35.80;100774.89;1711700;82;21561;-68
2021/07/26 06:45:37;;;;;;;9.83;8.93;;;;;;;30.91;36.22;100773.27;1710584;83;22497;-67
2021/07/26 06:48:04;;;;;;;10.68;8.98;;;;;;;31.03;35.94;100774.32;1699945;83;21138;-68
2021/07/26 06:50:31;;;;;;;10.70;9.75;;;;;;;31.11;35.66;100778.81;1691239;83;21089;-77
2021/07/26 06:52:57;;;;;;;12.20;9.85;;;;;;;31.10;35.68;100787.64;1709203;82;21520;-75
2021/07/26 06:55:24;;;;;;;10.35;9.20;;;;;;;31.01;35.82;100787.59;1714556;81;20956;-75
2021/07/26 06:57:53;;;;;;;9.35;8.63;;;;;;;30.76;36.64;100793.16;1707365;82;21099;-80
2021/07/26 07:00:19;;;;;;;11.55;9.50;;;;;;;30.73;38.48;100800.66;1710286;82;21054;-76
2021/07/26 07:02:47;;;;;;;9.58;8.78;;;;;;;30.71;38.75;100802.91;1701848;82;21022;-73
2021/07/26 07:05:13;;;;;;;11.18;8.18;;;;;;;30.78;38.54;100797.79;1713377;83;21011;-75
2021/07/26 07:07:39;;;;;;;13.68;9.60;;;;;;;30.90;38.56;100801.37;1713793;82;21122;-75
2021/07/26 07:10:07;;;;;;;9.55;8.58;;;;;;;31.12;38.14;100799.16;1696348;82;21046;-76
2021/07/26 07:12:33;;;;;;;10.63;9.63;;;;;;;31.13;38.07;100807.64;1703341;82;20995;-74
2021/07/26 07:14:59;;;;;;;10.60;8.75;;;;;;;31.05;37.41;100804.30;1704110;82;21078;-76
2021/07/26 07:17:25;;;;;;;9.05;8.35;;;;;;;30.93;37.65;100808.17;1699777;84;21110;-75
2021/07/26 07:19:51;;;;;;;10.05;9.00;;;;;;;30.92;37.72;100806.56;1697657;82;21433;-73
2021/07/26 07:22:21;;;;;;;8.75;8.13;;;;;;;31.03;37.73;100809.30;1701948;82;21551;-74
2021/07/26 07:24:47;;;;;;;8.53;7.72;;;;;;;31.12;35.87;100814.30;1704720;82;21153;-75
2021/07/26 07:27:14;;;;;;;7.80;7.15;;;;;;;31.10;35.68;100810.22;1687531;82;20992;-76
2021/07/26 07:29:40;;;;;;;7.40;6.72;;;;;;;31.15;36.21;100815.02;1697030;82;21152;-73
2021/07/26 07:32:11;;;;;;;13.53;6.65;;;;;;;31.05;35.75;100813.35;1703908;84;20991;-75
2021/07/26 07:34:35;;;;;;;6.17;5.20;;;;;;;30.95;35.91;100820.52;1692214;83;21055;-76
2021/07/26 07:37:04;;;;;;;6.83;6.15;;;;;;;30.80;34.52;100823.63;1707583;82;21050;-75
2021/07/26 07:39:30;;;;;;;5.35;4.80;;;;;;;30.52;34.11;100827.05;1701105;82;21567;-74
2021/07/26 07:41:56;;;;;;;7.00;5.28;;;;;;;30.24;35.33;100823.77;1692081;82;20995;-74
2021/07/26 07:44:29;;;;;;;5.62;5.22;;;;;;;30.12;35.92;100824.88;1704197;82;21724;-75
2021/07/26 07:46:50;;;;;;;5.28;4.97;;;;;;;29.93;35.39;100819.49;1706386;82;21046;-74
2021/07/26 07:49:18;;;;;;;6.58;6.05;;;;;;;29.69;36.84;100821.08;1698121;82;21110;-74
2021/07/26 07:51:44;;;;;;;5.15;4.85;;;;;;;29.43;37.36;100826.25;1697102;82;21046;-75
2021/07/26 07:54:10;;;;;;;5.85;5.50;;;;;;;29.36;37.52;100823.09;1711017;82;20983;-74
2021/07/26 07:56:38;;;;;;;5.85;5.45;;;;;;;29.24;37.45;100816.16;1705083;82;21125;-74
2021/07/26 07:59:06;;;;;;;6.00;5.33;;;;;;;29.16;37.89;100822.89;1711183;82;20987;-75
2021/07/26 08:01:32;;;;;;;5.08;4.00;;;;;;;29.16;37.75;100820.98;1723854;81;21018;-75
2021/07/26 08:04:00;;;;;;;4.65;4.25;;;;;;;29.27;36.58;100825.17;1691713;82;21089;-75
2021/07/26 08:06:26;;;;;;;8.18;5.12;;;;;;;29.33;36.14;100828.63;1694843;82;21616;-75
2021/07/26 08:08:53;;;;;;;4.37;4.17;;;;;;;29.18;36.60;100822.02;1708353;82;21027;-75
2021/07/26 08:11:19;;;;;;;4.33;3.87;;;;;;;29.10;36.52;100819.39;1685373;82;21054;-74
2021/07/26 08:13:45;;;;;;;5.87;4.85;;;;;;;29.06;36.88;100828.78;1696152;83;21007;-74
2021/07/26 08:16:11;;;;;;;6.75;4.08;;;;;;;29.03;36.10;100824.48;1705539;82;21748;-74
2021/07/26 08:18:39;;;;;;;4.75;4.55;;;;;;;29.02;35.98;100818.72;1692131;83;21054;-75
2021/07/26 08:21:05;;;;;;;4.53;4.15;;;;;;;29.11;36.29;100830.64;1707748;82;21068;-74
2021/07/26 08:23:31;;;;;;;5.85;4.37;;;;;;;29.18;35.59;100817.91;1716905;82;21014;-75
2021/07/26 08:25:57;;;;;;;4.72;4.42;;;;;;;29.19;35.39;100829.97;1728306;82;21045;-74
2021/07/26 08:28:23;;;;;;;4.35;4.03;;;;;;;29.03;36.30;100820.36;1727579;82;21606;-73
2021/07/26 08:30:49;;;;;;;5.25;4.58;;;;;;;29.03;36.30;100820.36;1717137;82;21055;-76
2021/07/26 08:33:15;;;;;;;5.25;4.85;;;;;;;29.14;36.25;100823.22;1704642;82;20995;-74
2021/07/26 08:35:43;;;;;;;9.95;5.58;;;;;;;29.30;36.60;100816.87;1706605;82;21142;-74
2021/07/26 08:38:09;;;;;;;5.33;4.92;;;;;;;29.42;36.59;100816.37;1701797;82;21503;-73
2021/07/26 08:40:36;;;;;;;10.60;5.53;;;;;;;29.50;36.64;100809.63;1698252;82;21616;-75
2021/07/26 08:43:08;;;;;;;6.47;5.37;;;;;;;29.62;35.33;100814.61;1718231;82;21024;-74
2021/07/26 08:45:35;;;;;;;5.28;4.60;;;;;;;29.74;35.11;100824.30;1726105;82;20989;-75
2021/07/26 08:48:08;;;;;;;7.37;5.00;;;;;;;29.74;35.30;100815.49;1725118;82;20994;-75
2021/07/26 08:50:36;;;;;;;5.45;5.08;;;;;;;29.62;36.16;100817.92;1723564;82;21064;-75
2021/07/26 08:53:07;;;;;;;6.30;4.70;;;;;;;29.53;35.94;100812.87;1716996;82;21511;-74
2021/07/26 08:55:34;;;;;;;6.08;4.55;;;;;;;29.49;35.27;100814.85;1715038;82;21013;-74
2021/07/26 08:58:03;;;;;;;5.72;4.70;;;;;;;29.46;36.07;100808.61;1707465;82;21552;-74
2021/07/26 09:00:30;;;;;;;8.55;5.15;;;;;;;29.39;36.59;100804.64;1707502;82;21065;-74
2021/07/26 09:02:56;;;;;;;5.55;4.37;;;;;;;29.35;36.42;100810.46;1717516;82;21003;-74
2021/07/26 09:05:23;;;;;;;7.35;4.03;;;;;;;29.35;34.24;100803.59;1711692;82;21038;-74
2021/07/26 09:07:50;;;;;;;8.50;5.55;;;;;;;29.37;34.55;100811.00;1717301;82;21015;-74
2021/07/26 09:10:22;;;;;;;6.15;4.60;;;;;;;29.36;34.84;100808.79;1716491;82;21098;-75
2021/07/26 09:12:52;;;;;;;5.62;5.03;;;;;;;29.25;34.64;100801.33;1703293;82;21089;-74
2021/07/26 09:15:32;;;;;;;5.28;4.83;;;;;;;29.24;34.96;100800.25;1710227;82;21018;-74
2021/07/26 09:18:02;;;;;;;5.65;4.35;;;;;;;29.29;34.98;100794.64;1716207;82;21118;-76
2021/07/26 09:20:30;;;;;;;5.87;3.80;;;;;;;29.41;34.89;100791.42;1709868;82;21062;-75
2021/07/26 09:23:15;;;;;;;6.17;3.85;;;;;;;29.41;33.12;100799.09;1715010;82;21058;-74
2021/07/26 09:25:45;;;;;;;4.50;4.10;;;;;;;29.38;33.37;100796.14;1716849;83;21638;-75
2021/07/26 09:28:20;;;;;;;4.10;3.80;;;;;;;29.39;33.67;100790.91;1711057;82;21491;-74
2021/07/26 09:30:50;;;;;;;4.50;4.10;;;;;;;29.46;34.27;100792.67;1717514;82;21550;-76
2021/07/26 09:33:31;;;;;;;4.03;3.72;;;;;;;29.61;34.58;100785.53;1692542;82;21865;-76
2021/07/26 09:36:12;;;;;;;6.00;3.98;;;;;;;29.80;34.36;100785.44;1717344;82;21027;-75
2021/07/26 09:38:46;;;;;;;5.83;4.53;;;;;;;29.98;33.82;100774.05;1701659;82;21693;-74
2021/07/26 09:41:12;;;;;;;5.17;4.78;;;;;;;30.03;33.74;100777.27;1716163;82;22062;-73
2021/07/26 09:43:38;;;;;;;4.33;4.08;;;;;;;29.98;33.96;100774.62;1683940;85;21025;-75
2021/07/26 09:46:05;;;;;;;4.92;4.53;;;;;;;29.93;33.97;100778.27;1698901;83;21029;-76
2021/07/26 09:48:32;;;;;;;5.28;3.62;;;;;;;29.79;34.15;100787.11;1698010;83;21086;-75
2021/07/26 09:51:03;;;;;;;5.47;4.05;;;;;;;29.62;34.69;100784.39;1695335;83;21191;-78
2021/07/26 09:53:30;;;;;;;4.60;4.40;;;;;;;29.56;34.89;100773.27;1688865;83;21064;-75
2021/07/26 09:55:59;;;;;;;5.33;4.80;;;;;;;29.63;34.39;100776.95;1676130;84;20991;-74
2021/07/26 09:58:40;;;;;;;4.28;3.98;;;;;;;29.76;34.12;100776.73;1642120;85;21050;-75
2021/07/26 10:01:09;;;;;;;4.83;4.53;;;;;;;29.92;34.15;100773.11;1671991;84;21008;-74
2021/07/26 10:03:41;;;;;;;7.30;4.40;;;;;;;30.04;34.08;100771.42;1639365;87;21053;-76
2021/07/26 10:06:10;;;;;;;4.95;4.55;;;;;;;30.13;34.05;100769.34;1645947;84;20993;-75
2021/07/26 10:08:39;;;;;;;6.28;3.95;;;;;;;30.22;34.21;100774.36;1650798;84;21096;-76
2021/07/26 10:11:08;;;;;;;3.70;3.50;;;;;;;30.36;34.04;100778.45;1634878;85;21134;-76
2021/07/26 10:13:41;;;;;;;4.92;4.42;;;;;;;30.36;32.36;100772.95;1687171;82;21125;-76
2021/07/26 10:16:16;;;;;;;7.03;4.42;;;;;;;30.25;32.88;100772.34;1672036;83;21097;-77
2021/07/26 10:18:45;;;;;;;4.08;3.87;;;;;;;30.22;32.80;100764.73;1680005;83;21057;-76
2021/07/26 10:21:16;;;;;;;5.08;4.78;;;;;;;30.25;32.84;100769.59;1689671;83;21555;-74
2021/07/26 10:23:48;;;;;;;5.50;5.03;;;;;;;30.33;32.58;100770.27;1680527;83;21056;-75
2021/07/26 10:26:19;;;;;;;6.22;5.72;;;;;;;30.32;33.53;100764.52;1681677;83;21110;-75
2021/07/26 10:28:56;;;;;;;5.85;5.35;;;;;;;30.27;33.96;100764.59;1669118;83;21105;-75
2021/07/26 10:31:37;;;;;;;5.72;5.03;;;;;;;30.28;33.90;100771.16;1689286;83;21137;-76
2021/07/26 10:34:15;;;;;;;4.70;4.30;;;;;;;30.37;33.79;100761.65;1697529;82;21565;-75
2021/07/26 10:36:49;;;;;;;7.37;4.80;;;;;;;30.37;32.20;100764.40;1698656;82;21002;-75
2021/07/26 10:39:17;;;;;;;4.92;4.55;;;;;;;30.27;31.92;100767.34;1699889;83;21117;-75
2021/07/26 10:41:50;;;;;;;4.55;3.92;;;;;;;30.15;31.27;100766.52;1696037;82;20994;-75
2021/07/26 10:44:22;;;;;;;5.08;3.83;;;;;;;30.12;31.32;100763.58;1707034;82;21037;-75
2021/07/26 10:46:57;;;;;;;4.45;4.05;;;;;;;30.11;31.82;100752.34;1693918;82;21029;-75
2021/07/26 10:49:50;;;;;;;11.20;4.72;;;;;;;30.13;31.61;100752.28;1696123;82;21170;-76
2021/07/26 10:52:31;;;;;;;4.15;3.85;;;;;;;30.17;31.80;100757.97;1695871;82;21065;-76
2021/07/26 10:54:59;;;;;;;4.83;4.53;;;;;;;30.28;31.80;100756.04;1681218;82;21548;-74
2021/07/26 10:57:50;;;;;;;7.28;3.40;;;;;;;30.36;31.06;100751.77;1707382;83;21020;-75
2021/07/26 11:00:20;;;;;;;3.70;2.85;;;;;;;30.42;30.04;100749.70;1690102;83;21109;-75
2021/07/26 11:02:50;;;;;;;5.72;3.37;;;;;;;30.46;28.97;100750.72;1697505;83;21491;-76
2021/07/26 11:05:31;;;;;;;4.17;3.77;;;;;;;30.53;29.17;100748.32;1679003;83;21459;-74
2021/07/26 11:08:21;;;;;;;4.67;4.28;;;;;;;30.58;30.82;100741.90;1683739;83;21066;-75
2021/07/26 11:10:57;;;;;;;4.30;3.60;;;;;;;30.57;31.10;100734.22;1699627;83;21067;-76
2021/07/26 11:13:50;;;;;;;3.77;3.47;;;;;;;30.60;29.84;100741.02;1698237;82;21007;-74
2021/07/26 11:16:58;;;;;;;3.17;2.85;;;;;;;30.63;29.62;100739.03;1656248;84;21179;-75
2021/07/26 11:19:37;;;;;;;3.70;3.50;;;;;;;30.65;29.76;100732.65;1685362;84;21132;-74
2021/07/26 11:22:08;;;;;;;4.50;3.95;;;;;;;30.73;30.40;100733.25;1678751;83;21124;-76
2021/07/26 11:24:50;;;;;;;3.62;3.35;;;;;;;30.70;30.79;100732.49;1704755;84;21044;-76
2021/07/26 11:27:24;;;;;;;3.80;3.50;;;;;;;30.71;31.05;100720.38;1707090;83;21171;-75
2021/07/26 11:29:54;;;;;;;4.37;3.97;;;;;;;30.73;29.82;100726.38;1708218;81;21516;-75
2021/07/26 11:32:25;;;;;;;4.15;3.85;;;;;;;30.75;29.74;100724.69;1725976;83;21202;-73
2021/07/26 11:35:02;;;;;;;4.17;3.80;;;;;;;30.70;30.40;100720.11;1685499;83;21026;-74
2021/07/26 11:37:38;;;;;;;3.70;3.50;;;;;;;30.67;28.48;100720.77;1682168;83;21585;-76